Big Bear Lake, CA

8:15 PM PST on December 17, 2014 (GMT -0800)
Big Bear City | Change Station
CLOSE
Current Station
Airport
Location: Big Bear City,
Elevation: 6752 ft
Nearby Weather Stations

Elev 6752 ft 34.26 °N, 116.86 °W | Updated 20 minutes ago

Overcast
Overcast
32 °F
Feels Like 26 °F
N
6
Wind Variable Wind from SW

Today
High -- | Low -- °F
--% Chance of Precip.
Yesterday
High -- | Low -- °F
Precip. -- in
6:47 AM 4:40 PM
Waning Crescent, 17% visible
Pressure 30.06 in
Visibility 10.0 miles
Clouds Mostly Cloudy 1500 ft
Mostly Cloudy 2200 ft
Mostly Cloudy 8000 ft
Windchill 26 °F
Dew Point 28 °F
Humidity 87%
Rainfall 0.43 in
Snow Depth Not available.
UV 0 out of 12
Pollen .90 out of 12
Air Quality Not available.
Flu Activity Not available.
METAR KL35 180355Z AUTO 22005KT 10SM BKN015 BKN022 BKN080 00/M02 A3006 RMK AO2

More Conditions Fewer Conditions

Pressure 30.06 in
Visibility 10.0 miles
Clouds Mostly Cloudy 1500 ft
Mostly Cloudy 2200 ft
Mostly Cloudy 8000 ft
Windchill 26 °F
Dew Point 28 °F
Humidity 87%
Rainfall 0.43 in
Snow Depth Not available.
UV 0 out of 12
Pollen .90 out of 12
Air Quality Not available.
Flu Activity Not available.
METAR KL35 180355Z AUTO 22005KT 10SM BKN015 BKN022 BKN080 00/M02 A3006 RMK AO2

More Conditions Fewer Conditions

10-Day Weather Forecast

Almanac

Astronomy

Dec. 17, 2014 Rise Set
Actual Time
Civil Twilight
Nautical Twilight
Astronomical Twilight
Moon
Length of Visible Light
Length of Day
Tomorrow will be .
, % of the Moon is Illuminated

Today's Extremes

State Highs State Lows

Community

WunderPhotos

Upload Photos

1,778,880 photos uploaded!

WunderBlogs® & News

Nearby

Air Quality

  Air Quality AQ Index Pollutant
Not available.

Snow Depth

Station Depth Elevation

Earthquake Activity

City Distance Mag. Time & Date
Minimum magnitude displayed is 2.5.

Coastal Water Temperatures

Place Temperature

Nearby Weather Stations